sensor_id;sensor_type;location;lat;lon;timestamp;P1;durP1;ratioP1;P2;durP2;ratioP2
4500;SDS011;2263;54.654;9.410;2023-05-10T00:01:24;3.60;;;3.30;;
4500;SDS011;2263;54.654;9.410;2023-05-10T00:03:52;7.73;;;4.47;;
4500;SDS011;2263;54.654;9.410;2023-05-10T00:06:20;3.43;;;3.13;;
4500;SDS011;2263;54.654;9.410;2023-05-10T00:08:47;4.37;;;3.90;;
4500;SDS011;2263;54.654;9.410;2023-05-10T00:11:15;4.20;;;3.53;;
4500;SDS011;2263;54.654;9.410;2023-05-10T00:13:42;23.23;;;4.00;;
4500;SDS011;2263;54.654;9.410;2023-05-10T00:16:10;5.20;;;3.70;;
4500;SDS011;2263;54.654;9.410;2023-05-10T00:18:39;52.40;;;5.83;;
4500;SDS011;2263;54.654;9.410;2023-05-10T00:21:07;10.73;;;3.83;;
4500;SDS011;2263;54.654;9.410;2023-05-10T00:23:34;3.83;;;3.40;;
4500;SDS011;2263;54.654;9.410;2023-05-10T00:26:02;5.70;;;3.30;;
4500;SDS011;2263;54.654;9.410;2023-05-10T00:28:29;10.83;;;3.87;;
4500;SDS011;2263;54.654;9.410;2023-05-10T00:30:57;5.03;;;3.80;;
4500;SDS011;2263;54.654;9.410;2023-05-10T00:33:25;4.37;;;3.70;;
4500;SDS011;2263;54.654;9.410;2023-05-10T00:35:52;6.23;;;4.00;;
4500;SDS011;2263;54.654;9.410;2023-05-10T00:38:20;4.03;;;3.73;;
4500;SDS011;2263;54.654;9.410;2023-05-10T00:40:47;4.80;;;3.73;;
4500;SDS011;2263;54.654;9.410;2023-05-10T00:43:15;4.07;;;3.67;;
4500;SDS011;2263;54.654;9.410;2023-05-10T00:45:42;3.83;;;3.50;;
4500;SDS011;2263;54.654;9.410;2023-05-10T00:48:11;5.50;;;3.20;;
4500;SDS011;2263;54.654;9.410;2023-05-10T00:50:38;4.50;;;4.03;;
4500;SDS011;2263;54.654;9.410;2023-05-10T00:53:07;8.73;;;4.20;;
4500;SDS011;2263;54.654;9.410;2023-05-10T00:55:35;5.10;;;3.93;;
4500;SDS011;2263;54.654;9.410;2023-05-10T00:58:04;3.83;;;3.53;;
4500;SDS011;2263;54.654;9.410;2023-05-10T01:00:32;4.17;;;3.87;;
4500;SDS011;2263;54.654;9.410;2023-05-10T01:03:00;5.30;;;4.20;;
4500;SDS011;2263;54.654;9.410;2023-05-10T01:05:31;4.50;;;4.07;;
4500;SDS011;2263;54.654;9.410;2023-05-10T01:07:59;5.00;;;4.60;;
4500;SDS011;2263;54.654;9.410;2023-05-10T01:10:26;4.07;;;3.67;;
4500;SDS011;2263;54.654;9.410;2023-05-10T01:12:54;5.63;;;3.53;;
4500;SDS011;2263;54.654;9.410;2023-05-10T01:15:22;4.33;;;3.93;;
4500;SDS011;2263;54.654;9.410;2023-05-10T01:17:50;4.47;;;4.13;;
4500;SDS011;2263;54.654;9.410;2023-05-10T01:20:19;6.60;;;4.30;;
4500;SDS011;2263;54.654;9.410;2023-05-10T01:29:07;4.13;;;3.83;;
4500;SDS011;2263;54.654;9.410;2023-05-10T01:32:04;4.40;;;4.00;;
4500;SDS011;2263;54.654;9.410;2023-05-10T01:37:29;3.83;;;3.30;;
4500;SDS011;2263;54.654;9.410;2023-05-10T01:43:01;4.70;;;4.07;;
4500;SDS011;2263;54.654;9.410;2023-05-10T01:48:01;4.13;;;3.27;;
4500;SDS011;2263;54.654;9.410;2023-05-10T01:50:34;4.47;;;4.17;;
4500;SDS011;2263;54.654;9.410;2023-05-10T01:53:05;4.57;;;4.17;;
4500;SDS011;2263;54.654;9.410;2023-05-10T01:55:38;9.17;;;4.00;;
4500;SDS011;2263;54.654;9.410;2023-05-10T01:58:13;4.10;;;3.80;;
4500;SDS011;2263;54.654;9.410;2023-05-10T02:00:50;4.20;;;3.90;;
4500;SDS011;2263;54.654;9.410;2023-05-10T02:03:20;4.43;;;3.53;;
4500;SDS011;2263;54.654;9.410;2023-05-10T02:05:50;22.73;;;4.13;;
4500;SDS011;2263;54.654;9.410;2023-05-10T02:08:20;5.80;;;4.50;;
4500;SDS011;2263;54.654;9.410;2023-05-10T02:10:50;4.00;;;3.80;;
4500;SDS011;2263;54.654;9.410;2023-05-10T02:13:19;5.20;;;4.70;;
4500;SDS011;2263;54.654;9.410;2023-05-10T02:15:50;5.93;;;4.50;;
4500;SDS011;2263;54.654;9.410;2023-05-10T02:18:19;3.90;;;3.60;;
4500;SDS011;2263;54.654;9.410;2023-05-10T02:20:49;4.33;;;3.97;;
4500;SDS011;2263;54.654;9.410;2023-05-10T02:23:19;4.43;;;3.80;;
4500;SDS011;2263;54.654;9.410;2023-05-10T02:25:48;5.57;;;3.77;;
4500;SDS011;2263;54.654;9.410;2023-05-10T02:28:18;8.70;;;3.93;;
4500;SDS011;2263;54.654;9.410;2023-05-10T02:30:48;4.03;;;3.73;;
4500;SDS011;2263;54.654;9.410;2023-05-10T02:33:17;5.17;;;3.73;;
4500;SDS011;2263;54.654;9.410;2023-05-10T02:35:50;3.70;;;3.50;;
4500;SDS011;2263;54.654;9.410;2023-05-10T02:38:18;8.30;;;5.07;;
4500;SDS011;2263;54.654;9.410;2023-05-10T02:40:48;5.33;;;4.77;;
4500;SDS011;2263;54.654;9.410;2023-05-10T02:43:17;4.57;;;3.70;;
4500;SDS011;2263;54.654;9.410;2023-05-10T02:45:46;5.70;;;3.73;;
4500;SDS011;2263;54.654;9.410;2023-05-10T02:48:15;5.40;;;4.30;;
4500;SDS011;2263;54.654;9.410;2023-05-10T02:50:44;4.50;;;4.10;;
4500;SDS011;2263;54.654;9.410;2023-05-10T02:53:15;6.47;;;4.57;;
4500;SDS011;2263;54.654;9.410;2023-05-10T02:55:47;5.20;;;4.90;;
4500;SDS011;2263;54.654;9.410;2023-05-10T02:58:18;4.27;;;3.87;;
4500;SDS011;2263;54.654;9.410;2023-05-10T03:00:46;7.70;;;5.30;;
4500;SDS011;2263;54.654;9.410;2023-05-10T03:03:13;4.10;;;3.80;;
4500;SDS011;2263;54.654;9.410;2023-05-10T03:05:41;4.53;;;3.50;;
4500;SDS011;2263;54.654;9.410;2023-05-10T03:08:08;4.20;;;3.80;;
4500;SDS011;2263;54.654;9.410;2023-05-10T03:10:37;4.10;;;3.80;;
4500;SDS011;2263;54.654;9.410;2023-05-10T03:16:06;6.17;;;4.67;;
4500;SDS011;2263;54.654;9.410;2023-05-10T03:21:47;4.97;;;4.63;;
4500;SDS011;2263;54.654;9.410;2023-05-10T03:24:20;4.27;;;4.03;;
4500;SDS011;2263;54.654;9.410;2023-05-10T03:26:50;5.83;;;4.53;;
4500;SDS011;2263;54.654;9.410;2023-05-10T03:29:20;6.17;;;4.57;;
4500;SDS011;2263;54.654;9.410;2023-05-10T03:31:48;4.60;;;4.00;;
4500;SDS011;2263;54.654;9.410;2023-05-10T03:34:16;6.77;;;4.67;;
4500;SDS011;2263;54.654;9.410;2023-05-10T03:36:49;8.40;;;4.33;;
4500;SDS011;2263;54.654;9.410;2023-05-10T03:39:17;4.30;;;4.00;;
4500;SDS011;2263;54.654;9.410;2023-05-10T03:41:44;5.03;;;4.70;;
4500;SDS011;2263;54.654;9.410;2023-05-10T03:44:12;4.90;;;4.50;;
4500;SDS011;2263;54.654;9.410;2023-05-10T03:46:40;5.83;;;4.10;;
4500;SDS011;2263;54.654;9.410;2023-05-10T03:49:07;5.47;;;4.97;;
4500;SDS011;2263;54.654;9.410;2023-05-10T03:51:35;4.97;;;4.60;;
4500;SDS011;2263;54.654;9.410;2023-05-10T03:54:03;4.50;;;4.20;;
4500;SDS011;2263;54.654;9.410;2023-05-10T03:56:31;5.03;;;4.63;;
4500;SDS011;2263;54.654;9.410;2023-05-10T03:58:59;5.17;;;4.77;;
4500;SDS011;2263;54.654;9.410;2023-05-10T04:01:27;5.20;;;4.67;;
4500;SDS011;2263;54.654;9.410;2023-05-10T04:03:54;7.20;;;4.63;;
4500;SDS011;2263;54.654;9.410;2023-05-10T04:06:22;4.67;;;4.30;;
4500;SDS011;2263;54.654;9.410;2023-05-10T04:08:50;4.43;;;4.03;;
4500;SDS011;2263;54.654;9.410;2023-05-10T04:11:17;4.87;;;4.57;;
4500;SDS011;2263;54.654;9.410;2023-05-10T04:13:45;11.50;;;4.43;;
4500;SDS011;2263;54.654;9.410;2023-05-10T04:16:12;4.43;;;4.00;;
4500;SDS011;2263;54.654;9.410;2023-05-10T04:18:40;4.10;;;3.80;;
4500;SDS011;2263;54.654;9.410;2023-05-10T04:21:13;5.57;;;4.60;;
4500;SDS011;2263;54.654;9.410;2023-05-10T04:23:41;5.43;;;4.73;;
4500;SDS011;2263;54.654;9.410;2023-05-10T04:26:08;13.23;;;5.67;;
4500;SDS011;2263;54.654;9.410;2023-05-10T04:28:39;10.67;;;5.10;;
4500;SDS011;2263;54.654;9.410;2023-05-10T04:31:08;5.53;;;4.97;;
4500;SDS011;2263;54.654;9.410;2023-05-10T04:33:36;9.37;;;5.77;;
4500;SDS011;2263;54.654;9.410;2023-05-10T04:36:04;6.33;;;5.90;;
4500;SDS011;2263;54.654;9.410;2023-05-10T04:38:32;5.60;;;5.20;;
4500;SDS011;2263;54.654;9.410;2023-05-10T04:41:09;5.20;;;4.90;;
4500;SDS011;2263;54.654;9.410;2023-05-10T04:43:37;6.63;;;5.70;;
4500;SDS011;2263;54.654;9.410;2023-05-10T04:46:05;5.50;;;5.00;;
4500;SDS011;2263;54.654;9.410;2023-05-10T04:48:34;9.43;;;5.77;;
4500;SDS011;2263;54.654;9.410;2023-05-10T04:51:01;7.70;;;4.53;;
4500;SDS011;2263;54.654;9.410;2023-05-10T04:53:30;5.27;;;4.60;;
4500;SDS011;2263;54.654;9.410;2023-05-10T04:55:58;4.47;;;4.13;;
4500;SDS011;2263;54.654;9.410;2023-05-10T04:58:25;5.60;;;5.20;;
4500;SDS011;2263;54.654;9.410;2023-05-10T05:00:53;5.43;;;4.37;;
4500;SDS011;2263;54.654;9.410;2023-05-10T05:03:20;4.70;;;4.27;;
4500;SDS011;2263;54.654;9.410;2023-05-10T05:05:49;6.60;;;4.47;;
4500;SDS011;2263;54.654;9.410;2023-05-10T05:08:16;5.30;;;4.90;;
4500;SDS011;2263;54.654;9.410;2023-05-10T05:10:44;4.23;;;3.93;;
4500;SDS011;2263;54.654;9.410;2023-05-10T05:13:12;7.17;;;4.50;;
4500;SDS011;2263;54.654;9.410;2023-05-10T05:15:39;5.73;;;5.33;;
4500;SDS011;2263;54.654;9.410;2023-05-10T05:18:07;5.50;;;5.00;;
4500;SDS011;2263;54.654;9.410;2023-05-10T05:20:35;4.50;;;4.10;;
4500;SDS011;2263;54.654;9.410;2023-05-10T05:23:02;4.97;;;4.57;;
4500;SDS011;2263;54.654;9.410;2023-05-10T05:25:30;7.93;;;4.87;;
4500;SDS011;2263;54.654;9.410;2023-05-10T05:27:57;4.57;;;4.37;;
4500;SDS011;2263;54.654;9.410;2023-05-10T05:30:25;4.90;;;4.60;;
4500;SDS011;2263;54.654;9.410;2023-05-10T05:32:52;6.20;;;4.77;;
4500;SDS011;2263;54.654;9.410;2023-05-10T05:35:20;5.40;;;4.17;;
4500;SDS011;2263;54.654;9.410;2023-05-10T05:37:47;5.53;;;4.90;;
4500;SDS011;2263;54.654;9.410;2023-05-10T05:40:15;5.20;;;4.80;;
4500;SDS011;2263;54.654;9.410;2023-05-10T05:42:43;5.40;;;4.90;;
4500;SDS011;2263;54.654;9.410;2023-05-10T05:45:10;4.73;;;4.30;;
4500;SDS011;2263;54.654;9.410;2023-05-10T05:47:40;4.83;;;4.43;;
4500;SDS011;2263;54.654;9.410;2023-05-10T05:50:08;5.83;;;4.97;;
4500;SDS011;2263;54.654;9.410;2023-05-10T05:52:36;5.27;;;4.90;;
4500;SDS011;2263;54.654;9.410;2023-05-10T05:55:07;5.27;;;4.87;;
4500;SDS011;2263;54.654;9.410;2023-05-10T05:57:34;6.60;;;3.77;;
4500;SDS011;2263;54.654;9.410;2023-05-10T06:00:02;4.53;;;4.23;;
4500;SDS011;2263;54.654;9.410;2023-05-10T06:02:30;5.10;;;4.70;;
4500;SDS011;2263;54.654;9.410;2023-05-10T06:04:57;8.53;;;5.10;;
4500;SDS011;2263;54.654;9.410;2023-05-10T06:07:25;6.37;;;5.73;;
4500;SDS011;2263;54.654;9.410;2023-05-10T06:09:53;4.40;;;4.10;;
4500;SDS011;2263;54.654;9.410;2023-05-10T06:12:20;7.10;;;5.07;;
4500;SDS011;2263;54.654;9.410;2023-05-10T06:14:48;6.43;;;4.63;;
4500;SDS011;2263;54.654;9.410;2023-05-10T06:17:15;5.90;;;5.40;;
4500;SDS011;2263;54.654;9.410;2023-05-10T06:19:43;4.63;;;3.90;;
4500;SDS011;2263;54.654;9.410;2023-05-10T06:22:10;5.73;;;5.10;;
4500;SDS011;2263;54.654;9.410;2023-05-10T06:24:38;5.00;;;4.60;;
4500;SDS011;2263;54.654;9.410;2023-05-10T06:27:06;5.60;;;5.10;;
4500;SDS011;2263;54.654;9.410;2023-05-10T06:29:33;6.63;;;5.20;;
4500;SDS011;2263;54.654;9.410;2023-05-10T06:32:01;5.90;;;5.40;;
4500;SDS011;2263;54.654;9.410;2023-05-10T06:34:28;4.97;;;4.57;;
4500;SDS011;2263;54.654;9.410;2023-05-10T06:36:56;4.47;;;4.17;;
4500;SDS011;2263;54.654;9.410;2023-05-10T06:39:23;5.63;;;5.13;;
4500;SDS011;2263;54.654;9.410;2023-05-10T06:41:51;5.17;;;4.80;;
4500;SDS011;2263;54.654;9.410;2023-05-10T06:44:19;6.00;;;5.43;;
4500;SDS011;2263;54.654;9.410;2023-05-10T06:46:46;8.07;;;7.27;;
4500;SDS011;2263;54.654;9.410;2023-05-10T06:49:14;8.13;;;6.50;;
4500;SDS011;2263;54.654;9.410;2023-05-10T06:51:42;5.20;;;4.80;;
4500;SDS011;2263;54.654;9.410;2023-05-10T06:54:09;6.20;;;5.60;;
4500;SDS011;2263;54.654;9.410;2023-05-10T06:56:37;6.20;;;5.63;;
4500;SDS011;2263;54.654;9.410;2023-05-10T06:59:04;5.63;;;5.10;;
4500;SDS011;2263;54.654;9.410;2023-05-10T07:01:32;8.57;;;4.50;;
4500;SDS011;2263;54.654;9.410;2023-05-10T07:04:00;8.77;;;6.00;;
4500;SDS011;2263;54.654;9.410;2023-05-10T07:06:27;5.40;;;4.97;;
4500;SDS011;2263;54.654;9.410;2023-05-10T07:08:59;5.13;;;4.63;;
4500;SDS011;2263;54.654;9.410;2023-05-10T07:11:27;5.63;;;4.90;;
4500;SDS011;2263;54.654;9.410;2023-05-10T07:13:55;4.63;;;4.33;;
4500;SDS011;2263;54.654;9.410;2023-05-10T07:16:22;7.40;;;4.80;;
4500;SDS011;2263;54.654;9.410;2023-05-10T07:18:50;8.60;;;5.60;;
4500;SDS011;2263;54.654;9.410;2023-05-10T07:21:19;5.80;;;5.27;;
4500;SDS011;2263;54.654;9.410;2023-05-10T07:23:47;5.63;;;5.13;;
4500;SDS011;2263;54.654;9.410;2023-05-10T07:26:15;9.13;;;5.27;;
4500;SDS011;2263;54.654;9.410;2023-05-10T07:28:43;7.40;;;5.13;;
4500;SDS011;2263;54.654;9.410;2023-05-10T07:31:10;7.40;;;4.83;;
4500;SDS011;2263;54.654;9.410;2023-05-10T07:33:38;7.00;;;5.60;;
4500;SDS011;2263;54.654;9.410;2023-05-10T07:36:06;6.70;;;4.97;;
4500;SDS011;2263;54.654;9.410;2023-05-10T07:38:33;5.53;;;5.10;;
4500;SDS011;2263;54.654;9.410;2023-05-10T07:41:01;4.93;;;4.40;;
4500;SDS011;2263;54.654;9.410;2023-05-10T07:43:28;5.23;;;4.83;;
4500;SDS011;2263;54.654;9.410;2023-05-10T07:45:56;5.97;;;5.40;;
4500;SDS011;2263;54.654;9.410;2023-05-10T07:48:24;6.90;;;6.40;;
4500;SDS011;2263;54.654;9.410;2023-05-10T07:50:54;5.73;;;5.43;;
4500;SDS011;2263;54.654;9.410;2023-05-10T07:53:22;7.87;;;5.27;;
4500;SDS011;2263;54.654;9.410;2023-05-10T07:55:50;6.17;;;5.67;;
4500;SDS011;2263;54.654;9.410;2023-05-10T07:58:18;5.40;;;5.00;;
4500;SDS011;2263;54.654;9.410;2023-05-10T08:00:48;5.47;;;5.07;;
4500;SDS011;2263;54.654;9.410;2023-05-10T08:03:16;5.80;;;5.20;;
4500;SDS011;2263;54.654;9.410;2023-05-10T08:05:44;6.73;;;5.10;;
4500;SDS011;2263;54.654;9.410;2023-05-10T08:08:11;5.60;;;5.10;;
4500;SDS011;2263;54.654;9.410;2023-05-10T08:10:39;6.10;;;5.53;;
4500;SDS011;2263;54.654;9.410;2023-05-10T08:13:06;5.00;;;4.70;;
4500;SDS011;2263;54.654;9.410;2023-05-10T08:15:34;5.03;;;4.63;;
4500;SDS011;2263;54.654;9.410;2023-05-10T08:18:01;5.40;;;5.10;;
4500;SDS011;2263;54.654;9.410;2023-05-10T08:20:29;5.40;;;5.00;;
4500;SDS011;2263;54.654;9.410;2023-05-10T08:22:57;7.47;;;5.30;;
4500;SDS011;2263;54.654;9.410;2023-05-10T08:25:24;6.23;;;5.60;;
4500;SDS011;2263;54.654;9.410;2023-05-10T08:27:52;5.67;;;5.10;;
4500;SDS011;2263;54.654;9.410;2023-05-10T08:30:19;5.50;;;4.63;;
4500;SDS011;2263;54.654;9.410;2023-05-10T08:32:47;4.93;;;4.47;;
4500;SDS011;2263;54.654;9.410;2023-05-10T08:35:15;5.40;;;4.90;;
4500;SDS011;2263;54.654;9.410;2023-05-10T08:37:43;5.53;;;5.10;;
4500;SDS011;2263;54.654;9.410;2023-05-10T08:40:11;5.43;;;5.00;;
4500;SDS011;2263;54.654;9.410;2023-05-10T08:42:39;4.83;;;4.43;;
4500;SDS011;2263;54.654;9.410;2023-05-10T08:45:10;6.47;;;5.97;;
4500;SDS011;2263;54.654;9.410;2023-05-10T08:47:38;8.30;;;6.40;;
4500;SDS011;2263;54.654;9.410;2023-05-10T08:50:06;5.90;;;5.40;;
4500;SDS011;2263;54.654;9.410;2023-05-10T08:52:34;5.73;;;4.90;;
4500;SDS011;2263;54.654;9.410;2023-05-10T08:55:07;5.70;;;5.30;;
4500;SDS011;2263;54.654;9.410;2023-05-10T08:57:35;5.10;;;4.70;;
4500;SDS011;2263;54.654;9.410;2023-05-10T09:00:03;6.73;;;6.10;;
4500;SDS011;2263;54.654;9.410;2023-05-10T09:02:31;6.20;;;5.67;;
4500;SDS011;2263;54.654;9.410;2023-05-10T09:04:58;9.03;;;6.50;;
4500;SDS011;2263;54.654;9.410;2023-05-10T09:07:26;6.57;;;5.93;;
4500;SDS011;2263;54.654;9.410;2023-05-10T09:09:54;5.23;;;4.93;;
4500;SDS011;2263;54.654;9.410;2023-05-10T09:12:23;7.17;;;6.47;;
4500;SDS011;2263;54.654;9.410;2023-05-10T09:14:51;5.73;;;5.33;;
4500;SDS011;2263;54.654;9.410;2023-05-10T09:17:23;7.03;;;6.30;;
4500;SDS011;2263;54.654;9.410;2023-05-10T09:20:01;7.13;;;6.40;;
4500;SDS011;2263;54.654;9.410;2023-05-10T09:22:31;7.67;;;7.03;;
4500;SDS011;2263;54.654;9.410;2023-05-10T09:27:38;6.53;;;6.03;;
4500;SDS011;2263;54.654;9.410;2023-05-10T09:30:07;6.50;;;6.10;;
4500;SDS011;2263;54.654;9.410;2023-05-10T09:32:45;7.30;;;6.67;;
4500;SDS011;2263;54.654;9.410;2023-05-10T09:35:17;6.27;;;5.80;;
4500;SDS011;2263;54.654;9.410;2023-05-10T09:37:47;9.60;;;5.77;;
4500;SDS011;2263;54.654;9.410;2023-05-10T09:40:16;6.13;;;5.63;;
4500;SDS011;2263;54.654;9.410;2023-05-10T09:42:52;8.20;;;6.37;;
4500;SDS011;2263;54.654;9.410;2023-05-10T09:45:25;7.13;;;6.53;;
4500;SDS011;2263;54.654;9.410;2023-05-10T09:47:54;6.73;;;6.10;;
4500;SDS011;2263;54.654;9.410;2023-05-10T09:50:22;5.93;;;5.53;;
4500;SDS011;2263;54.654;9.410;2023-05-10T09:55:26;12.03;;;6.67;;
4500;SDS011;2263;54.654;9.410;2023-05-10T09:58:06;6.53;;;5.93;;
4500;SDS011;2263;54.654;9.410;2023-05-10T10:00:38;7.27;;;6.67;;
4500;SDS011;2263;54.654;9.410;2023-05-10T10:03:14;6.30;;;5.70;;
4500;SDS011;2263;54.654;9.410;2023-05-10T10:05:43;9.17;;;6.13;;
4500;SDS011;2263;54.654;9.410;2023-05-10T10:08:14;9.30;;;6.03;;
4500;SDS011;2263;54.654;9.410;2023-05-10T10:10:42;6.70;;;6.10;;
4500;SDS011;2263;54.654;9.410;2023-05-10T10:13:13;6.53;;;6.00;;
4500;SDS011;2263;54.654;9.410;2023-05-10T10:15:42;6.60;;;6.10;;
4500;SDS011;2263;54.654;9.410;2023-05-10T10:18:12;9.03;;;6.57;;
4500;SDS011;2263;54.654;9.410;2023-05-10T10:20:42;6.77;;;6.00;;
4500;SDS011;2263;54.654;9.410;2023-05-10T10:23:10;10.90;;;7.60;;
4500;SDS011;2263;54.654;9.410;2023-05-10T10:25:37;8.93;;;8.17;;
4500;SDS011;2263;54.654;9.410;2023-05-10T10:28:23;8.40;;;7.03;;
4500;SDS011;2263;54.654;9.410;2023-05-10T10:30:57;7.53;;;6.90;;
4500;SDS011;2263;54.654;9.410;2023-05-10T10:33:51;8.47;;;6.13;;
4500;SDS011;2263;54.654;9.410;2023-05-10T10:36:43;7.93;;;7.20;;
4500;SDS011;2263;54.654;9.410;2023-05-10T10:39:12;8.33;;;7.37;;
4500;SDS011;2263;54.654;9.410;2023-05-10T10:49:52;10.03;;;9.00;;
4500;SDS011;2263;54.654;9.410;2023-05-10T10:52:36;13.70;;;9.60;;
4500;SDS011;2263;54.654;9.410;2023-05-10T10:55:12;10.77;;;8.90;;
4500;SDS011;2263;54.654;9.410;2023-05-10T10:57:51;9.50;;;8.30;;
4500;SDS011;2263;54.654;9.410;2023-05-10T11:00:28;11.43;;;9.70;;
4500;SDS011;2263;54.654;9.410;2023-05-10T11:02:58;12.40;;;9.70;;
4500;SDS011;2263;54.654;9.410;2023-05-10T11:08:06;8.50;;;7.67;;
4500;SDS011;2263;54.654;9.410;2023-05-10T11:10:35;12.50;;;9.50;;
4500;SDS011;2263;54.654;9.410;2023-05-10T11:13:04;9.07;;;8.37;;
4500;SDS011;2263;54.654;9.410;2023-05-10T11:15:36;8.60;;;7.90;;
4500;SDS011;2263;54.654;9.410;2023-05-10T11:18:19;7.40;;;6.80;;
4500;SDS011;2263;54.654;9.410;2023-05-10T11:20:51;10.27;;;8.50;;
4500;SDS011;2263;54.654;9.410;2023-05-10T11:26:15;7.93;;;6.77;;
4500;SDS011;2263;54.654;9.410;2023-05-10T11:28:47;7.50;;;6.80;;
4500;SDS011;2263;54.654;9.410;2023-05-10T11:31:16;8.73;;;7.47;;
4500;SDS011;2263;54.654;9.410;2023-05-10T11:33:49;7.90;;;7.20;;
4500;SDS011;2263;54.654;9.410;2023-05-10T11:36:19;14.07;;;6.93;;
4500;SDS011;2263;54.654;9.410;2023-05-10T11:38:48;16.70;;;7.73;;
4500;SDS011;2263;54.654;9.410;2023-05-10T11:41:16;7.50;;;6.87;;
4500;SDS011;2263;54.654;9.410;2023-05-10T11:43:46;6.93;;;6.33;;
4500;SDS011;2263;54.654;9.410;2023-05-10T11:46:15;6.60;;;6.10;;
4500;SDS011;2263;54.654;9.410;2023-05-10T11:48:50;7.20;;;6.50;;
4500;SDS011;2263;54.654;9.410;2023-05-10T11:51:20;8.93;;;7.73;;
4500;SDS011;2263;54.654;9.410;2023-05-10T11:53:49;6.60;;;6.00;;
4500;SDS011;2263;54.654;9.410;2023-05-10T11:56:21;7.17;;;6.63;;
4500;SDS011;2263;54.654;9.410;2023-05-10T11:58:54;8.97;;;7.13;;
4500;SDS011;2263;54.654;9.410;2023-05-10T12:01:24;8.07;;;6.50;;
4500;SDS011;2263;54.654;9.410;2023-05-10T12:03:53;7.27;;;6.57;;
4500;SDS011;2263;54.654;9.410;2023-05-10T12:06:26;7.27;;;6.60;;
4500;SDS011;2263;54.654;9.410;2023-05-10T12:08:55;7.60;;;7.10;;
4500;SDS011;2263;54.654;9.410;2023-05-10T12:11:26;8.37;;;7.67;;
4500;SDS011;2263;54.654;9.410;2023-05-10T12:13:55;6.93;;;6.50;;
4500;SDS011;2263;54.654;9.410;2023-05-10T12:16:24;7.30;;;6.80;;
4500;SDS011;2263;54.654;9.410;2023-05-10T12:18:59;8.10;;;7.40;;
4500;SDS011;2263;54.654;9.410;2023-05-10T12:21:27;7.57;;;6.13;;
4500;SDS011;2263;54.654;9.410;2023-05-10T12:24:03;7.53;;;6.70;;
4500;SDS011;2263;54.654;9.410;2023-05-10T12:26:31;9.60;;;6.60;;
4500;SDS011;2263;54.654;9.410;2023-05-10T12:29:12;10.13;;;7.10;;
4500;SDS011;2263;54.654;9.410;2023-05-10T12:31:53;7.27;;;6.57;;
4500;SDS011;2263;54.654;9.410;2023-05-10T12:34:25;8.80;;;7.87;;
4500;SDS011;2263;54.654;9.410;2023-05-10T12:36:57;8.70;;;8.00;;
4500;SDS011;2263;54.654;9.410;2023-05-10T12:39:25;8.80;;;8.17;;
4500;SDS011;2263;54.654;9.410;2023-05-10T12:41:52;8.10;;;7.47;;
4500;SDS011;2263;54.654;9.410;2023-05-10T12:44:20;8.43;;;7.73;;
4500;SDS011;2263;54.654;9.410;2023-05-10T12:46:48;8.63;;;7.93;;
4500;SDS011;2263;54.654;9.410;2023-05-10T12:49:15;11.30;;;8.23;;
4500;SDS011;2263;54.654;9.410;2023-05-10T12:51:45;8.20;;;7.50;;
4500;SDS011;2263;54.654;9.410;2023-05-10T12:54:13;11.83;;;8.83;;
4500;SDS011;2263;54.654;9.410;2023-05-10T12:56:40;11.33;;;10.37;;
4500;SDS011;2263;54.654;9.410;2023-05-10T12:59:09;9.30;;;8.30;;
4500;SDS011;2263;54.654;9.410;2023-05-10T13:01:36;9.53;;;8.73;;
4500;SDS011;2263;54.654;9.410;2023-05-10T13:04:04;9.23;;;8.47;;
4500;SDS011;2263;54.654;9.410;2023-05-10T13:06:32;10.77;;;9.27;;
4500;SDS011;2263;54.654;9.410;2023-05-10T13:08:59;11.27;;;8.97;;
4500;SDS011;2263;54.654;9.410;2023-05-10T13:11:27;9.80;;;8.90;;
4500;SDS011;2263;54.654;9.410;2023-05-10T13:13:55;9.23;;;8.53;;
4500;SDS011;2263;54.654;9.410;2023-05-10T13:16:22;9.87;;;8.97;;
4500;SDS011;2263;54.654;9.410;2023-05-10T13:18:50;10.70;;;9.70;;
4500;SDS011;2263;54.654;9.410;2023-05-10T13:21:17;10.10;;;9.20;;
4500;SDS011;2263;54.654;9.410;2023-05-10T13:23:45;11.80;;;8.20;;
4500;SDS011;2263;54.654;9.410;2023-05-10T13:26:13;9.27;;;8.47;;
4500;SDS011;2263;54.654;9.410;2023-05-10T13:28:41;9.23;;;8.30;;
4500;SDS011;2263;54.654;9.410;2023-05-10T13:31:08;10.90;;;9.90;;
4500;SDS011;2263;54.654;9.410;2023-05-10T13:33:37;10.20;;;9.00;;
4500;SDS011;2263;54.654;9.410;2023-05-10T13:36:04;11.13;;;10.03;;
4500;SDS011;2263;54.654;9.410;2023-05-10T13:38:33;11.07;;;9.10;;
4500;SDS011;2263;54.654;9.410;2023-05-10T13:41:01;10.23;;;9.37;;
4500;SDS011;2263;54.654;9.410;2023-05-10T13:43:29;9.27;;;8.47;;
4500;SDS011;2263;54.654;9.410;2023-05-10T13:45:56;10.33;;;9.27;;
4500;SDS011;2263;54.654;9.410;2023-05-10T13:48:24;10.20;;;9.13;;
4500;SDS011;2263;54.654;9.410;2023-05-10T13:50:51;13.33;;;12.03;;
4500;SDS011;2263;54.654;9.410;2023-05-10T13:53:19;14.20;;;10.43;;
4500;SDS011;2263;54.654;9.410;2023-05-10T13:55:47;9.20;;;8.40;;
4500;SDS011;2263;54.654;9.410;2023-05-10T13:58:15;14.03;;;10.03;;
4500;SDS011;2263;54.654;9.410;2023-05-10T14:00:44;10.10;;;9.30;;
4500;SDS011;2263;54.654;9.410;2023-05-10T14:03:12;11.70;;;9.63;;
4500;SDS011;2263;54.654;9.410;2023-05-10T14:05:39;11.40;;;9.13;;
4500;SDS011;2263;54.654;9.410;2023-05-10T14:08:07;10.87;;;9.77;;
4500;SDS011;2263;54.654;9.410;2023-05-10T14:10:36;15.43;;;10.37;;
4500;SDS011;2263;54.654;9.410;2023-05-10T14:13:04;11.53;;;10.33;;
4500;SDS011;2263;54.654;9.410;2023-05-10T14:15:33;9.87;;;9.17;;
4500;SDS011;2263;54.654;9.410;2023-05-10T14:18:00;8.77;;;8.00;;
4500;SDS011;2263;54.654;9.410;2023-05-10T14:20:28;10.77;;;9.77;;
4500;SDS011;2263;54.654;9.410;2023-05-10T14:22:56;10.47;;;9.43;;
4500;SDS011;2263;54.654;9.410;2023-05-10T14:25:23;9.90;;;9.00;;
4500;SDS011;2263;54.654;9.410;2023-05-10T14:27:51;9.30;;;8.33;;
4500;SDS011;2263;54.654;9.410;2023-05-10T14:30:21;10.87;;;9.80;;
4500;SDS011;2263;54.654;9.410;2023-05-10T14:32:48;9.20;;;8.50;;
4500;SDS011;2263;54.654;9.410;2023-05-10T14:35:16;9.40;;;8.60;;
4500;SDS011;2263;54.654;9.410;2023-05-10T14:37:45;10.00;;;9.20;;
4500;SDS011;2263;54.654;9.410;2023-05-10T14:40:13;10.07;;;8.93;;
4500;SDS011;2263;54.654;9.410;2023-05-10T14:42:42;10.07;;;9.03;;
4500;SDS011;2263;54.654;9.410;2023-05-10T14:45:10;13.50;;;11.30;;
4500;SDS011;2263;54.654;9.410;2023-05-10T14:47:38;11.50;;;10.50;;
4500;SDS011;2263;54.654;9.410;2023-05-10T14:50:06;11.47;;;9.57;;
4500;SDS011;2263;54.654;9.410;2023-05-10T14:52:34;10.20;;;9.30;;
4500;SDS011;2263;54.654;9.410;2023-05-10T14:55:03;12.00;;;10.80;;
4500;SDS011;2263;54.654;9.410;2023-05-10T14:57:32;11.40;;;10.40;;
4500;SDS011;2263;54.654;9.410;2023-05-10T15:00:00;11.40;;;10.23;;
4500;SDS011;2263;54.654;9.410;2023-05-10T15:02:30;10.70;;;9.70;;
4500;SDS011;2263;54.654;9.410;2023-05-10T15:04:58;10.67;;;9.77;;
4500;SDS011;2263;54.654;9.410;2023-05-10T15:07:26;10.30;;;9.23;;
4500;SDS011;2263;54.654;9.410;2023-05-10T15:09:54;10.37;;;9.37;;
4500;SDS011;2263;54.654;9.410;2023-05-10T15:12:21;11.00;;;10.00;;
4500;SDS011;2263;54.654;9.410;2023-05-10T15:14:49;10.90;;;9.97;;
4500;SDS011;2263;54.654;9.410;2023-05-10T15:17:16;10.63;;;9.57;;
4500;SDS011;2263;54.654;9.410;2023-05-10T15:19:44;11.77;;;10.57;;
4500;SDS011;2263;54.654;9.410;2023-05-10T15:22:12;10.80;;;9.80;;
4500;SDS011;2263;54.654;9.410;2023-05-10T15:24:39;10.30;;;9.50;;
4500;SDS011;2263;54.654;9.410;2023-05-10T15:27:07;10.53;;;9.70;;
4500;SDS011;2263;54.654;9.410;2023-05-10T15:29:35;11.60;;;10.50;;
4500;SDS011;2263;54.654;9.410;2023-05-10T15:32:02;12.30;;;10.93;;
4500;SDS011;2263;54.654;9.410;2023-05-10T15:34:30;12.40;;;11.30;;
4500;SDS011;2263;54.654;9.410;2023-05-10T15:37:01;15.23;;;11.90;;
4500;SDS011;2263;54.654;9.410;2023-05-10T15:39:28;11.87;;;10.80;;
4500;SDS011;2263;54.654;9.410;2023-05-10T15:41:56;11.77;;;10.80;;
4500;SDS011;2263;54.654;9.410;2023-05-10T15:44:24;11.27;;;10.20;;
4500;SDS011;2263;54.654;9.410;2023-05-10T15:46:51;10.57;;;9.73;;
4500;SDS011;2263;54.654;9.410;2023-05-10T15:49:19;12.90;;;11.33;;
4500;SDS011;2263;54.654;9.410;2023-05-10T15:51:47;10.90;;;9.90;;
4500;SDS011;2263;54.654;9.410;2023-05-10T15:54:15;11.80;;;10.67;;
4500;SDS011;2263;54.654;9.410;2023-05-10T15:56:42;12.80;;;11.60;;
4500;SDS011;2263;54.654;9.410;2023-05-10T15:59:10;10.10;;;9.20;;
4500;SDS011;2263;54.654;9.410;2023-05-10T16:01:37;13.17;;;11.77;;
4500;SDS011;2263;54.654;9.410;2023-05-10T16:04:05;12.23;;;10.97;;